createdAt,value
2023-01-05T00:01:55.055Z,100509.22
2023-01-05T00:04:23.184Z,100506.25
2023-01-05T00:06:53.203Z,100499.44
2023-01-05T00:09:21.355Z,100490.94
2023-01-05T00:12:06.701Z,100477.63
2023-01-05T00:14:53.174Z,100493.34
2023-01-05T00:17:41.543Z,100484.84
2023-01-05T00:20:33.290Z,100486.72
2023-01-05T00:23:01.471Z,100503.16
2023-01-05T00:25:30.717Z,100507.25
2023-01-05T00:27:59.278Z,100509.56
2023-01-05T00:30:30.134Z,100506.47
2023-01-05T00:32:59.579Z,100499.25
2023-01-05T00:35:29.983Z,100488.84
2023-01-05T00:37:57.831Z,100472.81
2023-01-05T00:40:25.652Z,100454.47
2023-01-05T00:42:53.480Z,100451.75
2023-01-05T00:45:22.041Z,100453.38
2023-01-05T00:47:51.723Z,100469.31
2023-01-05T00:50:22.168Z,100455.22
2023-01-05T00:52:50.882Z,100459.66
2023-01-05T00:55:19.577Z,100461.34
2023-01-05T00:57:47.430Z,100447.78
2023-01-05T01:00:18.689Z,100458.38
2023-01-05T01:02:46.975Z,100445.06
2023-01-05T01:05:15.068Z,100462.63
2023-01-05T01:07:44.405Z,100473.19
2023-01-05T01:10:13.243Z,100445.41
2023-01-05T01:15:09.498Z,100467.53
2023-01-05T01:17:37.732Z,100472.75
2023-01-05T01:20:06.754Z,100465.47
2023-01-05T01:22:34.599Z,100478.84
2023-01-05T01:25:04.142Z,100469.69
2023-01-05T01:27:32.701Z,100441.13
2023-01-05T01:30:00.710Z,100458.59
2023-01-05T01:32:28.648Z,100473.47
2023-01-05T01:34:56.590Z,100480.22
2023-01-05T01:37:24.367Z,100490.94
2023-01-05T01:39:52.200Z,100490.06
2023-01-05T01:42:23.518Z,100480.28
2023-01-05T01:44:55.453Z,100482.28
2023-01-05T01:47:30.680Z,100483.19
2023-01-05T01:50:01.334Z,100466.53
2023-01-05T01:52:32.398Z,100492.19
2023-01-05T01:55:01.849Z,100500.16
2023-01-05T01:57:31.498Z,100472.41
2023-01-05T02:00:02.975Z,100490.84
2023-01-05T02:02:31.221Z,100484.22
2023-01-05T02:05:05.332Z,100500.22
2023-01-05T02:07:36.211Z,100477.53
2023-01-05T02:10:06.581Z,100462.72
2023-01-05T02:12:48.727Z,100467.72
2023-01-05T02:15:25.456Z,100470.00
2023-01-05T02:18:08.659Z,100466.41
2023-01-05T02:20:54.054Z,100478.22
2023-01-05T02:23:47.125Z,100465.97
2023-01-05T02:26:50.247Z,100480.50
2023-01-05T02:29:41.265Z,100481.56
2023-01-05T02:32:14.750Z,100478.53
2023-01-05T02:34:50.715Z,100466.66
2023-01-05T02:37:25.860Z,100474.00
2023-01-05T02:39:58.044Z,100460.25
2023-01-05T02:42:27.997Z,100445.28
2023-01-05T02:44:55.953Z,100459.41
2023-01-05T02:47:44.970Z,100469.34
2023-01-05T02:50:18.997Z,100474.25
2023-01-05T02:52:54.556Z,100472.94
2023-01-05T02:55:25.611Z,100445.81
2023-01-05T02:57:57.558Z,100471.22
2023-01-05T03:00:27.963Z,100471.66
2023-01-05T03:03:02.145Z,100480.97
2023-01-05T03:05:35.903Z,100487.47
2023-01-05T03:08:07.950Z,100460.03
2023-01-05T03:11:01.032Z,100469.72
2023-01-05T03:13:44.046Z,100494.59
2023-01-05T03:16:16.354Z,100506.56
2023-01-05T03:19:04.622Z,100503.59
2023-01-05T03:21:49.935Z,100516.81
2023-01-05T03:24:35.679Z,100515.34
2023-01-05T03:27:22.619Z,100523.84
2023-01-05T03:30:07.978Z,100515.63
2023-01-05T03:32:56.741Z,100525.53
2023-01-05T03:35:32.834Z,100520.63
2023-01-05T03:38:04.897Z,100536.81
2023-01-05T03:40:35.896Z,100525.84
2023-01-05T03:43:05.429Z,100526.78
2023-01-05T03:45:37.629Z,100535.03
2023-01-05T03:48:06.404Z,100534.22
2023-01-05T03:50:35.852Z,100535.13
2023-01-05T03:53:03.940Z,100509.09
2023-01-05T03:55:31.791Z,100515.09
2023-01-05T03:57:59.584Z,100512.66
2023-01-05T04:00:27.473Z,100499.97
2023-01-05T04:02:55.397Z,100500.78
2023-01-05T04:05:23.369Z,100506.22
2023-01-05T04:07:52.555Z,100502.28
2023-01-05T04:10:20.516Z,100510.19
2023-01-05T04:12:49.282Z,100514.72
2023-01-05T04:15:17.192Z,100521.88
2023-01-05T04:17:45.092Z,100514.31
2023-01-05T04:20:13.341Z,100517.00
2023-01-05T04:22:41.989Z,100522.34
2023-01-05T04:25:11.364Z,100511.47
2023-01-05T04:27:39.186Z,100518.72
2023-01-05T04:30:08.444Z,100526.03
2023-01-05T04:32:36.236Z,100522.88
2023-01-05T04:35:10.852Z,100528.31
2023-01-05T04:37:40.038Z,100543.44
2023-01-05T04:40:09.060Z,100525.00
2023-01-05T04:42:38.283Z,100537.94
2023-01-05T04:45:07.065Z,100540.88
2023-01-05T04:47:34.885Z,100540.13
2023-01-05T04:50:02.678Z,100542.59
2023-01-05T04:52:30.764Z,100532.00
2023-01-05T04:54:58.596Z,100523.78
2023-01-05T04:57:26.445Z,100542.84
2023-01-05T04:59:55.588Z,100547.75
2023-01-05T05:02:23.836Z,100547.34
2023-01-05T05:04:51.938Z,100557.59
2023-01-05T05:07:19.890Z,100562.63
2023-01-05T05:09:47.764Z,100581.81
2023-01-05T05:12:15.778Z,100574.78
2023-01-05T05:14:43.634Z,100563.59
2023-01-05T05:17:12.843Z,100574.28
2023-01-05T05:19:40.636Z,100570.28
2023-01-05T05:22:08.810Z,100575.88
2023-01-05T05:24:36.677Z,100588.03
2023-01-05T05:27:04.704Z,100573.59
2023-01-05T05:29:32.616Z,100550.50
2023-01-05T05:32:00.755Z,100583.56
2023-01-05T05:34:30.021Z,100574.06
2023-01-05T05:36:57.901Z,100580.97
2023-01-05T05:39:25.778Z,100588.03
2023-01-05T05:41:53.923Z,100590.38
2023-01-05T05:44:21.783Z,100601.06
2023-01-05T05:46:49.610Z,100590.75
2023-01-05T05:49:17.423Z,100597.09
2023-01-05T05:51:46.538Z,100597.72
2023-01-05T05:54:14.325Z,100596.41
2023-01-05T05:56:42.088Z,100599.16
2023-01-05T05:59:10.067Z,100603.88
2023-01-05T06:01:38.037Z,100595.19
2023-01-05T06:04:06.351Z,100601.03
2023-01-05T06:06:34.160Z,100597.81
2023-01-05T06:09:03.385Z,100611.88
2023-01-05T06:11:31.306Z,100613.84
2023-01-05T06:13:59.309Z,100615.69
2023-01-05T06:16:27.351Z,100625.00
2023-01-05T06:18:55.227Z,100627.09
2023-01-05T06:21:23.229Z,100627.56
2023-01-05T06:23:53.730Z,100627.16
2023-01-05T06:26:23.091Z,100627.16
2023-01-05T06:28:50.978Z,100629.69
2023-01-05T06:31:18.887Z,100624.50
2023-01-05T06:33:46.705Z,100622.97
2023-01-05T06:36:15.868Z,100632.41
2023-01-05T06:38:43.754Z,100625.34
2023-01-05T06:41:11.729Z,100619.75
2023-01-05T06:43:40.892Z,100645.13
2023-01-05T06:46:08.779Z,100646.00
2023-01-05T06:48:36.713Z,100651.91
2023-01-05T06:51:04.739Z,100649.00
2023-01-05T06:53:32.621Z,100651.63
2023-01-05T06:56:00.463Z,100647.59
2023-01-05T06:58:28.453Z,100650.59
2023-01-05T07:00:58.082Z,100650.34
2023-01-05T07:03:26.070Z,100650.06
2023-01-05T07:05:54.239Z,100650.31
2023-01-05T07:08:22.071Z,100655.63
2023-01-05T07:10:49.856Z,100655.50
2023-01-05T07:13:17.624Z,100659.47
2023-01-05T07:15:45.469Z,100671.97
2023-01-05T07:18:14.831Z,100673.69
2023-01-05T07:20:42.770Z,100673.69
2023-01-05T07:23:10.505Z,100677.25
2023-01-05T07:25:38.380Z,100668.94
2023-01-05T07:28:06.431Z,100679.09
2023-01-05T07:30:34.424Z,100687.56
2023-01-05T07:33:02.336Z,100689.25
2023-01-05T07:35:31.457Z,100705.56
2023-01-05T07:37:59.292Z,100685.50
2023-01-05T07:40:28.492Z,100708.94
2023-01-05T07:42:56.468Z,100702.84
2023-01-05T07:45:24.463Z,100687.84
2023-01-05T07:47:52.586Z,100704.69
2023-01-05T07:50:21.134Z,100717.44
2023-01-05T07:52:50.303Z,100704.69
2023-01-05T07:55:18.242Z,100717.44
2023-01-05T07:57:46.981Z,100703.50
2023-01-05T08:00:15.615Z,100714.06
2023-01-05T08:02:43.959Z,100709.72
2023-01-05T08:05:11.936Z,100723.88
2023-01-05T08:07:39.714Z,100729.78
2023-01-05T08:10:28.313Z,100729.47
2023-01-05T08:13:13.504Z,100734.28
2023-01-05T08:15:44.798Z,100752.00
2023-01-05T08:18:17.054Z,100745.56
2023-01-05T08:20:44.904Z,100755.72
2023-01-05T08:23:12.671Z,100765.66
2023-01-05T08:25:56.601Z,100756.06
2023-01-05T08:28:29.880Z,100760.81
2023-01-05T08:31:03.205Z,100757.59
2023-01-05T08:33:30.965Z,100775.25
2023-01-05T08:35:58.901Z,100777.09
2023-01-05T08:38:27.449Z,100773.28
2023-01-05T08:41:00.404Z,100757.00
2023-01-05T08:43:28.700Z,100772.91
2023-01-05T08:45:57.906Z,100769.41
2023-01-05T08:48:25.848Z,100777.84
2023-01-05T08:50:54.833Z,100784.25
2023-01-05T08:53:22.820Z,100789.34
2023-01-05T08:55:50.759Z,100773.69
2023-01-05T08:58:19.972Z,100787.72
2023-01-05T09:00:48.048Z,100792.25
2023-01-05T09:03:15.962Z,100792.81
2023-01-05T09:05:43.913Z,100798.97
2023-01-05T09:08:11.741Z,100789.34
2023-01-05T09:10:39.999Z,100809.66
2023-01-05T09:13:07.911Z,100805.16
2023-01-05T09:15:51.044Z,100805.84
2023-01-05T09:18:21.704Z,100780.38
2023-01-05T09:20:56.347Z,100803.59
2023-01-05T09:23:43.689Z,100798.81
2023-01-05T09:26:13.073Z,100809.09
2023-01-05T09:28:40.956Z,100792.91
2023-01-05T09:31:12.075Z,100806.13
2023-01-05T09:33:40.461Z,100817.38
2023-01-05T09:36:09.540Z,100807.31
2023-01-05T09:38:42.066Z,100820.44
2023-01-05T09:41:16.668Z,100808.78
2023-01-05T09:43:45.790Z,100817.38
2023-01-05T09:46:19.804Z,100810.53
2023-01-05T09:48:53.532Z,100819.56
2023-01-05T09:51:21.428Z,100819.31
2023-01-05T09:53:49.623Z,100815.38
2023-01-05T09:56:58.838Z,100825.44
2023-01-05T09:59:18.102Z,100828.03
2023-01-05T10:01:49.353Z,100831.25
2023-01-05T10:04:22.859Z,100830.75
2023-01-05T10:06:58.364Z,100832.59
2023-01-05T10:09:31.213Z,100841.00
2023-01-05T10:12:21.245Z,100813.63
2023-01-05T10:14:54.215Z,100834.22
2023-01-05T10:17:42.321Z,100828.81
2023-01-05T10:20:29.395Z,100843.22
2023-01-05T10:23:06.905Z,100848.94
2023-01-05T10:25:42.660Z,100849.53
2023-01-05T10:28:30.859Z,100838.78
2023-01-05T10:31:00.905Z,100834.69
2023-01-05T10:33:53.112Z,100838.66
2023-01-05T10:39:47.613Z,100841.81
2023-01-05T10:42:25.349Z,100846.63
2023-01-05T10:44:56.556Z,100846.16
2023-01-05T10:47:26.981Z,100846.63
2023-01-05T10:49:56.457Z,100845.56
2023-01-05T10:52:24.279Z,100838.53
2023-01-05T10:54:55.726Z,100855.25
2023-01-05T10:57:38.816Z,100852.88
2023-01-05T11:00:14.076Z,100851.63
2023-01-05T11:02:47.666Z,100839.00
2023-01-05T11:05:27.722Z,100846.00
2023-01-05T11:07:57.808Z,100841.69
2023-01-05T11:10:31.023Z,100861.47
2023-01-05T11:13:05.809Z,100858.75
2023-01-05T11:15:40.675Z,100852.34
2023-01-05T11:18:19.881Z,100868.03
2023-01-05T11:21:07.688Z,100856.06
2023-01-05T11:23:37.415Z,100868.84
2023-01-05T11:26:27.695Z,100871.31
2023-01-05T11:29:13.729Z,100871.00
2023-01-05T11:31:46.804Z,100855.09
2023-01-05T11:34:25.325Z,100868.53
2023-01-05T11:36:59.094Z,100874.94
2023-01-05T11:39:32.818Z,100874.66
2023-01-05T11:42:20.219Z,100868.72
2023-01-05T11:44:55.045Z,100868.88
2023-01-05T11:47:27.144Z,100874.09
2023-01-05T11:50:07.018Z,100869.00
2023-01-05T11:52:40.290Z,100867.88
2023-01-05T11:55:30.299Z,100866.69
2023-01-05T11:58:22.441Z,100874.66
2023-01-05T12:01:07.257Z,100837.94
2023-01-05T12:03:58.879Z,100863.78
2023-01-05T12:06:39.287Z,100876.06
2023-01-05T12:09:16.989Z,100871.66
2023-01-05T12:11:54.160Z,100873.13
2023-01-05T12:14:40.949Z,100870.09
2023-01-05T12:17:14.474Z,100853.56
2023-01-05T12:20:21.992Z,100873.31
2023-01-05T12:23:11.674Z,100870.09
2023-01-05T12:25:57.251Z,100875.31
2023-01-05T12:28:42.146Z,100875.66
2023-01-05T12:34:38.072Z,100863.53
2023-01-05T12:37:20.270Z,100851.06
2023-01-05T12:40:11.303Z,100869.13
2023-01-05T12:42:58.658Z,100873.97
2023-01-05T12:45:37.746Z,100872.78
2023-01-05T12:48:10.203Z,100873.66
2023-01-05T12:50:45.331Z,100869.09
2023-01-05T12:53:25.703Z,100867.72
2023-01-05T12:55:58.374Z,100871.81
2023-01-05T12:58:34.046Z,100873.56
2023-01-05T13:01:08.283Z,100869.00
2023-01-05T13:03:44.167Z,100876.78
2023-01-05T13:06:16.660Z,100880.81
2023-01-05T13:08:49.877Z,100888.75
2023-01-05T13:11:25.592Z,100887.34
2023-01-05T13:14:05.767Z,100877.19
2023-01-05T13:16:39.056Z,100879.63
2023-01-05T13:19:14.696Z,100869.88
2023-01-05T13:21:45.719Z,100870.41
2023-01-05T13:24:22.735Z,100879.13
2023-01-05T13:26:51.004Z,100878.88
2023-01-05T13:29:25.000Z,100870.81
2023-01-05T13:32:09.160Z,100887.81
2023-01-05T13:35:12.769Z,100877.50
2023-01-05T13:38:06.578Z,100879.16
2023-01-05T13:41:03.595Z,100875.34
2023-01-05T13:43:48.351Z,100880.53
2023-01-05T13:46:40.400Z,100889.97
2023-01-05T13:49:39.891Z,100881.81
2023-01-05T13:52:22.060Z,100884.38
2023-01-05T13:55:01.471Z,100887.41
2023-01-05T13:57:36.590Z,100890.91
2023-01-05T14:00:12.457Z,100887.31
2023-01-05T14:02:47.257Z,100861.47
2023-01-05T14:05:26.141Z,100904.56
2023-01-05T14:07:56.942Z,100890.75
2023-01-05T14:10:27.981Z,100906.75
2023-01-05T14:12:56.347Z,100899.09
2023-01-05T14:15:40.485Z,100905.63
2023-01-05T14:18:11.339Z,100897.47
2023-01-05T14:20:49.287Z,100910.00
2023-01-05T14:23:57.355Z,100911.66
2023-01-05T14:27:06.904Z,100925.59
2023-01-05T14:30:10.260Z,100928.25
2023-01-05T14:32:41.376Z,100922.38
2023-01-05T14:35:26.217Z,100898.56
2023-01-05T14:38:00.507Z,100911.31
2023-01-05T14:40:38.837Z,100899.66
2023-01-05T14:43:21.593Z,100936.47
2023-01-05T14:46:01.109Z,100931.34
2023-01-05T14:48:35.230Z,100919.34
2023-01-05T14:51:23.886Z,100912.66
2023-01-05T14:53:54.357Z,100932.44
2023-01-05T14:56:25.767Z,100929.63
2023-01-05T14:59:02.883Z,100961.03
2023-01-05T15:04:12.384Z,100970.31
2023-01-05T15:07:07.550Z,100971.97
2023-01-05T15:09:50.381Z,100953.59
2023-01-05T15:12:37.547Z,100972.03
2023-01-05T15:15:25.329Z,100968.03
2023-01-05T15:18:41.154Z,100970.50
2023-01-05T15:21:33.439Z,100946.25
2023-01-05T15:24:36.060Z,100974.91
2023-01-05T15:27:24.192Z,100978.72
2023-01-05T15:30:06.466Z,100973.75
2023-01-05T15:32:38.950Z,100990.31
2023-01-05T15:35:17.096Z,100968.94
2023-01-05T15:37:50.264Z,100940.94
2023-01-05T15:40:53.766Z,100943.09
2023-01-05T15:43:22.248Z,100979.28
2023-01-05T15:45:53.635Z,100981.25
2023-01-05T15:48:32.765Z,100968.91
2023-01-05T15:51:02.393Z,100985.84
2023-01-05T15:53:33.257Z,100991.34
2023-01-05T15:56:03.925Z,100961.44
2023-01-05T15:58:33.729Z,100949.53
2023-01-05T16:01:04.935Z,100982.13
2023-01-05T16:03:35.121Z,100984.84
2023-01-05T16:06:10.186Z,100979.78
2023-01-05T16:08:43.095Z,100951.59
2023-01-05T16:11:16.173Z,100971.94
2023-01-05T16:13:49.326Z,100980.94
2023-01-05T16:16:49.587Z,100974.44
2023-01-05T16:19:13.287Z,100990.31
2023-01-05T16:21:44.509Z,100992.03
2023-01-05T16:24:20.263Z,100986.41
2023-01-05T16:26:49.946Z,100995.16
2023-01-05T16:29:30.951Z,100984.47
2023-01-05T16:31:59.182Z,100996.91
2023-01-05T16:34:31.313Z,100999.41
2023-01-05T16:37:04.185Z,101001.91
2023-01-05T16:39:39.953Z,100990.84
2023-01-05T16:42:39.833Z,100990.00
2023-01-05T16:45:10.402Z,100989.59
2023-01-05T16:47:40.088Z,100981.25
2023-01-05T16:50:54.491Z,100978.31
2023-01-05T16:53:24.694Z,100982.44
2023-01-05T16:55:55.143Z,100983.53
2023-01-05T16:58:38.554Z,100988.56
2023-01-05T17:01:26.936Z,100982.28
2023-01-05T17:03:55.263Z,100981.81
2023-01-05T17:06:28.563Z,100983.75
2023-01-05T17:09:00.028Z,100985.63
2023-01-05T17:11:31.473Z,100977.91
2023-01-05T17:14:02.225Z,100992.50
2023-01-05T17:16:31.989Z,100966.66
2023-01-05T17:19:02.087Z,100994.88
2023-01-05T17:21:33.503Z,100983.13
2023-01-05T17:24:01.879Z,100984.19
2023-01-05T17:26:33.378Z,100984.63
2023-01-05T17:29:04.805Z,100981.88
2023-01-05T17:31:32.704Z,100986.25
2023-01-05T17:34:00.651Z,100982.91
2023-01-05T17:36:31.318Z,100985.88
2023-01-05T17:39:01.441Z,100991.31
2023-01-05T17:41:29.655Z,100994.41
2023-01-05T17:43:57.634Z,100988.75
2023-01-05T17:46:31.554Z,100980.97
2023-01-05T17:49:00.609Z,100987.47
2023-01-05T17:51:29.130Z,100991.44
2023-01-05T17:53:57.547Z,100983.28
2023-01-05T17:56:25.644Z,100986.44
2023-01-05T17:58:54.203Z,100977.22
2023-01-05T18:01:22.440Z,100982.06
2023-01-05T18:03:51.821Z,100987.06
2023-01-05T18:06:19.788Z,100984.19
2023-01-05T18:08:47.817Z,100986.47
2023-01-05T18:11:17.359Z,100985.03
2023-01-05T18:13:46.008Z,100993.44
2023-01-05T18:16:17.181Z,100979.00
2023-01-05T18:18:45.205Z,100989.88
2023-01-05T18:21:17.991Z,100983.56
2023-01-05T18:23:45.846Z,100965.63
2023-01-05T18:26:13.718Z,100990.28
2023-01-05T18:28:41.822Z,100986.31
2023-01-05T18:31:11.606Z,100979.66
2023-01-05T18:33:39.657Z,100967.31
2023-01-05T18:36:09.011Z,100949.94
2023-01-05T18:38:38.869Z,100971.91
2023-01-05T18:41:06.893Z,100984.66
2023-01-05T18:43:35.286Z,100960.22
2023-01-05T18:46:03.603Z,100979.44
2023-01-05T18:48:32.011Z,100970.88
2023-01-05T18:50:59.876Z,100937.81
2023-01-05T18:53:27.908Z,100960.84
2023-01-05T18:55:57.153Z,100980.91
2023-01-05T18:58:25.190Z,100977.16
2023-01-05T19:00:53.183Z,100981.75
2023-01-05T19:03:21.186Z,100983.63
2023-01-05T19:05:49.004Z,100965.22
2023-01-05T19:08:19.347Z,100981.53
2023-01-05T19:10:47.236Z,100972.53
2023-01-05T19:13:16.444Z,100951.78
2023-01-05T19:15:44.301Z,100977.78
2023-01-05T19:18:12.183Z,100973.78
2023-01-05T19:20:40.228Z,100988.44
2023-01-05T19:23:08.268Z,100974.63
2023-01-05T19:25:36.051Z,100964.56
2023-01-05T19:28:03.981Z,100978.16
2023-01-05T19:30:33.299Z,100981.53
2023-01-05T19:33:02.257Z,100969.41
2023-01-05T19:35:31.272Z,100973.75
2023-01-05T19:38:00.370Z,100968.97
2023-01-05T19:40:28.494Z,100966.25
2023-01-05T19:42:57.045Z,100974.41
2023-01-05T19:45:25.162Z,100979.38
2023-01-05T19:47:54.549Z,100977.31
2023-01-05T19:50:22.450Z,100977.31
2023-01-05T19:52:50.358Z,100973.75
2023-01-05T19:55:18.753Z,100981.94
2023-01-05T19:57:47.157Z,100975.59
2023-01-05T20:00:16.362Z,100972.88
2023-01-05T20:02:44.531Z,100972.84
2023-01-05T20:05:14.157Z,100972.03
2023-01-05T20:07:43.592Z,100968.03
2023-01-05T20:10:12.550Z,100954.38
2023-01-05T20:12:41.213Z,100964.88
2023-01-05T20:15:13.850Z,100973.00
2023-01-05T20:17:45.428Z,100947.28
2023-01-05T20:20:18.301Z,100958.78
2023-01-05T20:22:46.374Z,100921.56
2023-01-05T20:25:14.476Z,100968.22
2023-01-05T20:27:42.719Z,100971.22
2023-01-05T20:30:13.808Z,100967.63
2023-01-05T20:32:44.028Z,100914.53
2023-01-05T20:35:14.037Z,100925.63
2023-01-05T20:37:43.482Z,100949.66
2023-01-05T20:40:11.890Z,100955.28
2023-01-05T20:42:39.918Z,100981.25
2023-01-05T20:45:09.055Z,100975.00
2023-01-05T20:47:47.101Z,100969.75
2023-01-05T20:50:15.879Z,100976.03
2023-01-05T20:52:45.576Z,100971.19
2023-01-05T20:55:13.628Z,100951.97
2023-01-05T20:57:41.595Z,100970.78
2023-01-05T21:00:12.500Z,100940.47
2023-01-05T21:02:40.743Z,100974.59
2023-01-05T21:05:11.805Z,100974.75
2023-01-05T21:07:39.870Z,100952.22
2023-01-05T21:10:09.837Z,100947.34
2023-01-05T21:12:37.742Z,100966.22
2023-01-05T21:15:06.600Z,100946.53
2023-01-05T21:17:34.730Z,100971.03
2023-01-05T21:20:03.479Z,100983.19
2023-01-05T21:22:31.353Z,100973.50
2023-01-05T21:24:59.339Z,100966.19
2023-01-05T21:27:28.675Z,100979.38
2023-01-05T21:29:56.568Z,100963.88
2023-01-05T21:32:24.492Z,100974.38
2023-01-05T21:34:52.400Z,100966.63
2023-01-05T21:37:20.373Z,100960.38
2023-01-05T21:39:48.957Z,100968.56
2023-01-05T21:42:34.495Z,100984.25
2023-01-05T21:45:03.760Z,100978.16
2023-01-05T21:47:31.697Z,100949.91
2023-01-05T21:49:59.617Z,100954.91
2023-01-05T21:52:44.813Z,100960.63
2023-01-05T21:55:30.169Z,100964.38
2023-01-05T21:57:58.019Z,100964.38
2023-01-05T22:00:27.313Z,100945.13
2023-01-05T22:02:55.238Z,100956.03
2023-01-05T22:05:23.189Z,100959.56
2023-01-05T22:07:51.960Z,100939.69
2023-01-05T22:10:20.070Z,100947.88
2023-01-05T22:12:48.018Z,100923.59
2023-01-05T22:15:15.981Z,100932.59
2023-01-05T22:17:45.276Z,100939.25
2023-01-05T22:20:14.489Z,100919.22
2023-01-05T22:22:42.479Z,100922.53
2023-01-05T22:25:10.798Z,100937.16
2023-01-05T22:27:38.685Z,100915.03
2023-01-05T22:30:08.636Z,100934.06
2023-01-05T22:32:36.861Z,100906.22
2023-01-05T22:35:06.917Z,100933.00
2023-01-05T22:37:34.730Z,100912.28
2023-01-05T22:40:02.682Z,100934.03
2023-01-05T22:42:30.708Z,100934.47
2023-01-05T22:44:58.617Z,100923.34
2023-01-05T22:47:26.780Z,100943.84
2023-01-05T22:49:54.706Z,100937.19
2023-01-05T22:52:24.153Z,100932.16
2023-01-05T22:54:51.994Z,100928.59
2023-01-05T22:57:20.077Z,100891.78
2023-01-05T22:59:48.023Z,100934.84
2023-01-05T23:02:15.962Z,100910.00
2023-01-05T23:04:43.848Z,100925.69
2023-01-05T23:07:11.686Z,100920.00
2023-01-05T23:09:41.185Z,100891.78
2023-01-05T23:12:09.623Z,100919.41
2023-01-05T23:14:38.513Z,100918.78
2023-01-05T23:17:06.512Z,100913.16
2023-01-05T23:19:34.284Z,100913.34
2023-01-05T23:22:02.001Z,100878.81
2023-01-05T23:24:29.935Z,100893.47
2023-01-05T23:26:59.105Z,100884.50
2023-01-05T23:29:27.419Z,100904.38
2023-01-05T23:31:55.273Z,100896.81
2023-01-05T23:34:23.112Z,100873.00
2023-01-05T23:36:50.979Z,100869.00
2023-01-05T23:39:18.825Z,100899.50
2023-01-05T23:41:46.588Z,100885.47
2023-01-05T23:44:17.093Z,100873.78
2023-01-05T23:46:46.037Z,100883.78
2023-01-05T23:49:13.820Z,100875.56
2023-01-05T23:51:41.703Z,100877.91
2023-01-05T23:54:11.043Z,100873.78
2023-01-05T23:56:39.326Z,100858.75
2023-01-05T23:59:08.923Z,100868.50
